Mhead, Massachusetts
Current Conditions -  °F | °C
As of 11:53 AM on Thursday 30 Oct 2014 (Local Time) from KBVY Reporting Station
Few Clouds Few Clouds  
Wind Chill: 56°   Ceiling: Unl
Heat Index: 56°   Visibility: 10mi
Dew Point: 39°   Wind: 12mph
Humidity: 53%   Direction: 320°NW
Pressure: 29.91"   Gusts: 22mph
Location:  42.4989°N, 70.8636°W
Report Text: KBVY 301553Z 32010G19KT 10SM FEW080 13/04 A2991 RMK AO2 SLP125 T01330039
Loading
Personal Weather Stations






























Interactive Weather Map
Tropical Storm Tracking
New forecast layout! Learn more

10-Day Weather Forecast

Advertisements
Track Severe Weather on mobile